createdAt,value
2023-01-30T00:00:12.141Z,0
2023-01-30T00:01:12.607Z,0
2023-01-30T00:02:13.935Z,0
2023-01-30T00:03:14.358Z,0
2023-01-30T00:04:17.155Z,0
2023-01-30T00:05:16.087Z,0
2023-01-30T00:06:16.494Z,0
2023-01-30T00:07:17.002Z,0
2023-01-30T00:08:17.397Z,0
2023-01-30T00:09:17.862Z,0
2023-01-30T00:10:18.728Z,0
2023-01-30T00:11:19.563Z,0
2023-01-30T00:12:20.120Z,0
2023-01-30T00:13:20.570Z,0
2023-01-30T00:14:21.525Z,0
2023-01-30T00:15:22.715Z,0
2023-01-30T00:16:23.187Z,0
2023-01-30T00:17:23.610Z,0
2023-01-30T00:18:24.106Z,0
2023-01-30T00:19:24.502Z,0
2023-01-30T00:20:25.063Z,0
2023-01-30T00:21:25.549Z,0
2023-01-30T00:22:26.888Z,0
2023-01-30T00:23:27.778Z,0
2023-01-30T00:24:59.590Z,0
2023-01-30T00:25:59.878Z,0
2023-01-30T00:27:00.328Z,0
2023-01-30T00:28:01.635Z,0
2023-01-30T00:29:02.097Z,0
2023-01-30T00:30:03.708Z,0
2023-01-30T00:31:03.040Z,0
2023-01-30T00:32:04.150Z,0
2023-01-30T00:33:04.592Z,0
2023-01-30T00:34:05.115Z,0
2023-01-30T00:35:06.337Z,0
2023-01-30T00:36:06.779Z,0
2023-01-30T00:37:08.581Z,0
2023-01-30T00:38:07.764Z,0
2023-01-30T00:39:08.200Z,0
2023-01-30T00:40:08.749Z,0
2023-01-30T00:41:09.172Z,0
2023-01-30T00:42:09.684Z,0
2023-01-30T00:44:10.807Z,0
2023-01-30T00:45:11.815Z,0
2023-01-30T00:46:12.293Z,0
2023-01-30T00:47:12.762Z,0
2023-01-30T00:48:13.203Z,0
2023-01-30T00:49:13.735Z,0
2023-01-30T00:50:14.116Z,0
2023-01-30T00:51:14.531Z,0
2023-01-30T00:52:15.007Z,0
2023-01-30T00:53:15.508Z,0
2023-01-30T00:54:16.111Z,0
2023-01-30T00:55:17.562Z,0
2023-01-30T00:56:17.760Z,0
2023-01-30T00:57:18.277Z,0
2023-01-30T00:58:18.796Z,0
2023-01-30T00:59:19.431Z,0
2023-01-30T01:00:19.913Z,0
2023-01-30T01:01:21.027Z,0
2023-01-30T01:02:21.618Z,0
2023-01-30T01:03:22.162Z,0
2023-01-30T01:04:22.782Z,0
2023-01-30T01:05:23.856Z,0
2023-01-30T01:06:24.405Z,0
2023-01-30T01:07:25.829Z,0
2023-01-30T01:08:26.235Z,0
2023-01-30T01:09:27.405Z,0
2023-01-30T01:10:58.057Z,0
2023-01-30T01:11:58.615Z,0
2023-01-30T01:12:59.039Z,0
2023-01-30T01:14:00.143Z,0
2023-01-30T01:15:00.606Z,0
2023-01-30T01:16:01.680Z,0
2023-01-30T01:17:02.183Z,0
2023-01-30T01:18:02.618Z,0
2023-01-30T01:19:03.146Z,0
2023-01-30T01:20:03.727Z,0
2023-01-30T01:21:04.173Z,0
2023-01-30T01:22:04.691Z,0
2023-01-30T01:23:05.121Z,0
2023-01-30T01:24:05.689Z,0
2023-01-30T01:25:06.158Z,0
2023-01-30T01:26:06.598Z,0
2023-01-30T01:27:07.089Z,0
2023-01-30T01:28:07.556Z,0
2023-01-30T01:29:08.835Z,0
2023-01-30T01:30:09.265Z,0
2023-01-30T01:31:09.898Z,0
2023-01-30T01:32:11.149Z,0
2023-01-30T01:33:11.741Z,0
2023-01-30T01:34:12.235Z,0
2023-01-30T01:35:12.787Z,0
2023-01-30T01:36:29.307Z,0
2023-01-30T01:37:14.591Z,0
2023-01-30T01:38:15.168Z,0
2023-01-30T01:39:15.636Z,0
2023-01-30T01:40:16.208Z,0
2023-01-30T01:41:16.695Z,0
2023-01-30T01:42:17.136Z,0
2023-01-30T01:43:17.827Z,0
2023-01-30T01:44:18.278Z,0
2023-01-30T01:45:19.398Z,0
2023-01-30T01:46:20.066Z,0
2023-01-30T01:47:20.471Z,0
2023-01-30T01:48:20.992Z,0
2023-01-30T01:49:22.353Z,0
2023-01-30T01:50:23.169Z,0
2023-01-30T01:51:23.495Z,0
2023-01-30T01:52:24.529Z,0
2023-01-30T01:53:25.034Z,0
2023-01-30T01:54:25.559Z,0
2023-01-30T01:55:26.899Z,0
2023-01-30T01:56:57.539Z,0
2023-01-30T01:57:58.022Z,0
2023-01-30T01:58:58.442Z,0
2023-01-30T01:59:58.895Z,0
2023-01-30T02:00:59.594Z,0
2023-01-30T02:02:00.028Z,0
2023-01-30T02:03:01.126Z,0
2023-01-30T02:04:01.551Z,0
2023-01-30T02:05:02.214Z,0
2023-01-30T02:06:03.588Z,0
2023-01-30T02:07:04.045Z,0
2023-01-30T02:08:04.588Z,0
2023-01-30T02:09:05.032Z,0
2023-01-30T02:10:05.549Z,0
2023-01-30T02:11:06.157Z,0
2023-01-30T02:12:06.575Z,0
2023-01-30T02:13:07.045Z,0
2023-01-30T02:14:07.480Z,0
2023-01-30T02:15:07.979Z,0
2023-01-30T02:16:09.057Z,0
2023-01-30T02:17:09.485Z,0
2023-01-30T02:18:10.032Z,0
2023-01-30T02:19:10.507Z,0
2023-01-30T02:20:11.015Z,0
2023-01-30T02:21:11.597Z,0
2023-01-30T02:22:12.019Z,0
2023-01-30T02:23:12.599Z,0
2023-01-30T02:24:13.117Z,0
2023-01-30T02:25:13.643Z,0
2023-01-30T02:26:15.134Z,0
2023-01-30T02:27:15.431Z,0
2023-01-30T02:28:16.020Z,0
2023-01-30T02:29:16.434Z,0
2023-01-30T02:30:16.867Z,0
2023-01-30T02:31:17.484Z,0
2023-01-30T02:32:18.541Z,0
2023-01-30T02:33:19.080Z,0
2023-01-30T02:34:19.521Z,0
2023-01-30T02:35:20.467Z,0
2023-01-30T02:36:21.021Z,0
2023-01-30T02:37:21.576Z,0
2023-01-30T02:38:21.961Z,0
2023-01-30T02:39:22.489Z,0
2023-01-30T02:40:23.066Z,0
2023-01-30T02:41:23.583Z,0
2023-01-30T02:42:24.059Z,0
2023-01-30T02:43:24.493Z,0
2023-01-30T02:44:25.070Z,0
2023-01-30T02:45:25.996Z,0
2023-01-30T02:46:57.430Z,0
2023-01-30T02:47:57.812Z,0
2023-01-30T02:48:58.321Z,0
2023-01-30T02:49:58.856Z,0
2023-01-30T02:50:59.522Z,0
2023-01-30T02:52:00.041Z,0
2023-01-30T02:53:00.330Z,0
2023-01-30T02:54:00.814Z,0
2023-01-30T02:55:01.200Z,0
2023-01-30T02:56:02.322Z,0
2023-01-30T02:57:02.907Z,0
2023-01-30T02:58:03.298Z,0
2023-01-30T02:59:03.716Z,0
2023-01-30T03:00:04.177Z,0
2023-01-30T03:01:04.701Z,0
2023-01-30T03:02:05.439Z,0
2023-01-30T03:03:05.849Z,0
2023-01-30T03:04:06.325Z,0
2023-01-30T03:05:06.909Z,0
2023-01-30T03:06:08.314Z,0
2023-01-30T03:07:08.863Z,0
2023-01-30T03:08:09.307Z,0
2023-01-30T03:09:40.542Z,0
2023-01-30T03:11:11.205Z,0
2023-01-30T03:12:11.745Z,0
2023-01-30T03:13:12.202Z,0
2023-01-30T03:14:12.681Z,0
2023-01-30T03:15:13.228Z,0
2023-01-30T03:16:14.401Z,0
2023-01-30T03:17:14.760Z,0
2023-01-30T03:18:15.407Z,0
2023-01-30T03:19:15.874Z,0
2023-01-30T03:20:16.407Z,0
2023-01-30T03:21:17.000Z,0
2023-01-30T03:22:17.376Z,0
2023-01-30T03:23:17.803Z,0
2023-01-30T03:24:18.320Z,0
2023-01-30T03:25:19.065Z,0
2023-01-30T03:26:19.872Z,0
2023-01-30T03:27:20.267Z,0
2023-01-30T03:28:20.862Z,0
2023-01-30T03:29:21.293Z,0
2023-01-30T03:30:21.836Z,0
2023-01-30T03:31:22.551Z,0
2023-01-30T03:32:23.538Z,0
2023-01-30T03:33:23.986Z,0
2023-01-30T03:34:24.427Z,0
2023-01-30T03:35:24.986Z,0
2023-01-30T03:36:56.543Z,0
2023-01-30T03:37:57.051Z,0
2023-01-30T03:38:57.496Z,0
2023-01-30T03:39:57.929Z,0
2023-01-30T03:40:58.547Z,0
2023-01-30T03:41:58.974Z,0
2023-01-30T03:42:59.557Z,0
2023-01-30T03:43:59.965Z,0
2023-01-30T03:45:00.384Z,0
2023-01-30T03:46:00.986Z,0
2023-01-30T03:47:02.040Z,0
2023-01-30T03:48:02.641Z,0
2023-01-30T03:49:03.013Z,0
2023-01-30T03:50:03.517Z,0
2023-01-30T03:51:03.972Z,0
2023-01-30T03:52:04.542Z,0
2023-01-30T03:53:05.014Z,0
2023-01-30T03:54:05.466Z,0
2023-01-30T03:55:05.912Z,0
2023-01-30T03:56:07.348Z,0
2023-01-30T03:57:07.799Z,0
2023-01-30T03:58:09.076Z,0
2023-01-30T03:59:09.485Z,0
2023-01-30T04:00:09.995Z,0
2023-01-30T04:01:10.546Z,0
2023-01-30T04:02:10.980Z,0
2023-01-30T04:03:12.103Z,0
2023-01-30T04:04:12.541Z,0
2023-01-30T04:05:13.043Z,0
2023-01-30T04:06:13.443Z,0
2023-01-30T04:07:14.604Z,0
2023-01-30T04:08:15.178Z,0
2023-01-30T04:09:15.634Z,0
2023-01-30T04:10:16.236Z,0
2023-01-30T04:11:16.735Z,0
2023-01-30T04:12:17.151Z,0
2023-01-30T04:13:17.698Z,0
2023-01-30T04:14:18.188Z,0
2023-01-30T04:15:18.875Z,0
2023-01-30T04:16:19.117Z,0
2023-01-30T04:17:20.019Z,0
2023-01-30T04:18:20.599Z,0
2023-01-30T04:19:21.094Z,0
2023-01-30T04:20:21.709Z,0
2023-01-30T04:21:22.189Z,0
2023-01-30T04:22:22.724Z,0
2023-01-30T04:23:23.684Z,0
2023-01-30T04:24:24.137Z,0
2023-01-30T04:25:55.411Z,0
2023-01-30T04:26:55.868Z,0
2023-01-30T04:27:57.116Z,0
2023-01-30T04:28:57.556Z,0
2023-01-30T04:29:58.036Z,0
2023-01-30T04:30:58.670Z,0
2023-01-30T04:31:59.026Z,0
2023-01-30T04:33:00.162Z,0
2023-01-30T04:34:00.552Z,0
2023-01-30T04:35:00.982Z,0
2023-01-30T04:36:01.394Z,0
2023-01-30T04:37:02.583Z,0
2023-01-30T04:38:03.092Z,0
2023-01-30T04:39:03.615Z,0
2023-01-30T04:40:04.097Z,0
2023-01-30T04:41:04.511Z,0
2023-01-30T04:42:05.125Z,0
2023-01-30T04:43:05.622Z,0
2023-01-30T04:44:06.153Z,0
2023-01-30T04:45:06.592Z,0
2023-01-30T04:46:07.077Z,0
2023-01-30T04:47:08.052Z,0
2023-01-30T04:48:08.634Z,0
2023-01-30T04:49:09.099Z,0
2023-01-30T04:50:09.648Z,0
2023-01-30T04:51:10.402Z,0
2023-01-30T04:52:10.849Z,0
2023-01-30T04:53:12.144Z,0
2023-01-30T04:54:12.610Z,0
2023-01-30T04:55:13.124Z,0
2023-01-30T04:56:13.545Z,0
2023-01-30T04:57:14.510Z,0
2023-01-30T04:58:15.070Z,0
2023-01-30T04:59:15.557Z,0
2023-01-30T05:00:16.184Z,0
2023-01-30T05:01:16.578Z,0
2023-01-30T05:02:17.867Z,0
2023-01-30T05:03:18.291Z,0
2023-01-30T05:04:18.829Z,0
2023-01-30T05:05:19.669Z,0
2023-01-30T05:06:19.715Z,0
2023-01-30T05:07:21.063Z,0
2023-01-30T05:08:21.574Z,0
2023-01-30T05:09:22.004Z,0
2023-01-30T05:10:22.421Z,0
2023-01-30T05:11:22.947Z,0
2023-01-30T05:12:23.402Z,0
2023-01-30T05:13:24.253Z,0
2023-01-30T05:14:55.073Z,0
2023-01-30T05:15:55.510Z,0
2023-01-30T05:16:56.879Z,0
2023-01-30T05:17:57.219Z,0
2023-01-30T05:18:57.790Z,0
2023-01-30T05:19:58.204Z,0
2023-01-30T05:20:58.741Z,0
2023-01-30T05:21:59.195Z,0
2023-01-30T05:22:59.623Z,0
2023-01-30T05:24:00.199Z,0
2023-01-30T05:25:00.628Z,0
2023-01-30T05:26:01.878Z,0
2023-01-30T05:27:02.808Z,0
2023-01-30T05:28:03.357Z,0
2023-01-30T05:29:03.822Z,0
2023-01-30T05:30:04.263Z,0
2023-01-30T05:31:04.980Z,0
2023-01-30T05:32:05.259Z,0
2023-01-30T05:33:06.651Z,0
2023-01-30T05:34:07.124Z,0
2023-01-30T05:35:07.564Z,0
2023-01-30T05:36:08.043Z,0
2023-01-30T05:37:09.345Z,0
2023-01-30T05:38:09.834Z,0
2023-01-30T05:39:40.467Z,0
2023-01-30T05:41:11.283Z,0
2023-01-30T05:42:11.724Z,0
2023-01-30T05:43:12.370Z,0
2023-01-30T05:44:12.835Z,0
2023-01-30T05:45:13.287Z,0
2023-01-30T05:46:13.924Z,0
2023-01-30T05:47:14.827Z,0
2023-01-30T05:48:15.441Z,0
2023-01-30T05:49:15.924Z,0
2023-01-30T05:50:16.376Z,0
2023-01-30T05:51:16.943Z,0
2023-01-30T05:52:17.355Z,0
2023-01-30T05:53:17.800Z,0
2023-01-30T05:54:18.388Z,0
2023-01-30T05:55:19.209Z,0
2023-01-30T05:56:19.362Z,0
2023-01-30T05:57:20.302Z,0
2023-01-30T05:58:20.775Z,0
2023-01-30T05:59:21.202Z,0
2023-01-30T06:00:21.671Z,0
2023-01-30T06:01:22.282Z,0
2023-01-30T06:02:22.736Z,0
2023-01-30T06:03:23.897Z,0
2023-01-30T06:04:54.414Z,0
2023-01-30T06:05:54.913Z,0
2023-01-30T06:06:55.395Z,0
2023-01-30T06:07:56.513Z,0
2023-01-30T06:08:57.004Z,0
2023-01-30T06:09:57.408Z,0
2023-01-30T06:10:58.010Z,0
2023-01-30T06:11:58.566Z,0
2023-01-30T06:12:58.970Z,0
2023-01-30T06:13:59.544Z,0
2023-01-30T06:14:59.964Z,0
2023-01-30T06:16:00.542Z,0
2023-01-30T06:17:01.058Z,0
2023-01-30T06:18:02.151Z,0
2023-01-30T06:19:02.652Z,0
2023-01-30T06:20:03.068Z,0
2023-01-30T06:21:03.589Z,0
2023-01-30T06:22:04.155Z,0
2023-01-30T06:23:04.515Z,0
2023-01-30T06:24:05.007Z,0
2023-01-30T06:25:05.443Z,0
2023-01-30T06:26:08.147Z,0
2023-01-30T06:27:06.460Z,0
2023-01-30T06:28:07.514Z,0
2023-01-30T06:29:08.025Z,0
2023-01-30T06:30:08.570Z,0
2023-01-30T06:31:09.120Z,0
2023-01-30T06:32:09.558Z,0
2023-01-30T06:33:09.975Z,0
2023-01-30T06:34:10.643Z,0
2023-01-30T06:35:11.154Z,0
2023-01-30T06:36:11.683Z,0
2023-01-30T06:37:12.188Z,0
2023-01-30T06:38:13.504Z,0
2023-01-30T06:39:13.976Z,0
2023-01-30T06:40:14.415Z,0
2023-01-30T06:41:14.894Z,4
2023-01-30T06:42:15.514Z,4
2023-01-30T06:43:15.927Z,0
2023-01-30T06:44:16.452Z,0
2023-01-30T06:45:17.323Z,4
2023-01-30T06:46:17.494Z,4
2023-01-30T06:47:17.909Z,4
2023-01-30T06:48:18.983Z,4
2023-01-30T06:49:19.541Z,4
2023-01-30T06:50:20.010Z,4
2023-01-30T06:51:20.517Z,8
2023-01-30T06:52:21.048Z,4
2023-01-30T06:53:21.457Z,8
2023-01-30T06:54:21.941Z,8
2023-01-30T06:55:22.340Z,12
2023-01-30T06:56:53.542Z,12
2023-01-30T06:57:54.812Z,12
2023-01-30T06:58:55.326Z,16
2023-01-30T06:59:55.825Z,16
2023-01-30T07:00:56.274Z,12
2023-01-30T07:01:56.899Z,20
2023-01-30T07:02:58.333Z,16
2023-01-30T07:03:58.932Z,20
2023-01-30T07:04:59.381Z,24
2023-01-30T07:05:59.815Z,28
2023-01-30T07:07:00.379Z,24
2023-01-30T07:08:00.803Z,24
2023-01-30T07:09:01.339Z,28
2023-01-30T07:10:08.356Z,28
2023-01-30T07:11:02.349Z,28
2023-01-30T07:12:02.976Z,32
2023-01-30T07:13:03.438Z,32
2023-01-30T07:14:05.714Z,36
2023-01-30T07:15:04.461Z,36
2023-01-30T07:16:04.907Z,40
2023-01-30T07:17:05.518Z,40
2023-01-30T07:18:06.512Z,40
2023-01-30T07:19:07.131Z,44
2023-01-30T07:20:07.698Z,44
2023-01-30T07:21:08.204Z,44
2023-01-30T07:22:08.752Z,44
2023-01-30T07:23:09.215Z,44
2023-01-30T07:24:09.728Z,44
2023-01-30T07:25:10.526Z,48
2023-01-30T07:26:11.128Z,48
2023-01-30T07:27:11.644Z,48
2023-01-30T07:28:13.096Z,52
2023-01-30T07:29:13.584Z,48
2023-01-30T07:30:14.165Z,60
2023-01-30T07:31:14.836Z,64
2023-01-30T07:32:15.265Z,64
2023-01-30T07:33:16.377Z,60
2023-01-30T07:34:16.848Z,64
2023-01-30T07:35:17.421Z,68
2023-01-30T07:36:17.993Z,64
2023-01-30T07:37:18.525Z,64
2023-01-30T07:38:19.508Z,64
2023-01-30T07:39:19.936Z,68
2023-01-30T07:40:20.408Z,68
2023-01-30T07:41:21.037Z,76
2023-01-30T07:42:21.563Z,80
2023-01-30T07:43:22.480Z,100
2023-01-30T07:44:53.155Z,116
2023-01-30T07:45:53.592Z,128
2023-01-30T07:46:54.339Z,136
2023-01-30T07:47:55.302Z,144
2023-01-30T07:48:56.644Z,136
2023-01-30T07:49:56.256Z,132
2023-01-30T07:50:56.677Z,132
2023-01-30T07:51:57.425Z,132
2023-01-30T07:52:58.819Z,136
2023-01-30T07:53:59.393Z,136
2023-01-30T07:55:01.482Z,144
2023-01-30T07:56:00.327Z,148
2023-01-30T07:57:00.866Z,152
2023-01-30T07:58:02.344Z,160
2023-01-30T07:59:02.855Z,172
2023-01-30T08:00:03.419Z,188
2023-01-30T08:01:03.852Z,184
2023-01-30T08:02:04.453Z,192
2023-01-30T08:03:04.815Z,200
2023-01-30T08:04:06.198Z,200
2023-01-30T08:05:06.685Z,200
2023-01-30T08:06:07.161Z,232
2023-01-30T08:07:07.641Z,264
2023-01-30T08:08:08.859Z,276
2023-01-30T08:09:09.420Z,300
2023-01-30T08:10:15.177Z,304
2023-01-30T08:11:10.580Z,312
2023-01-30T08:12:11.011Z,320
2023-01-30T08:13:11.582Z,328
2023-01-30T08:14:12.124Z,328
2023-01-30T08:15:12.607Z,336
2023-01-30T08:16:13.197Z,340
2023-01-30T08:17:13.625Z,324
2023-01-30T08:18:14.827Z,320
2023-01-30T08:19:15.302Z,332
2023-01-30T08:20:15.879Z,340
2023-01-30T08:21:16.469Z,372
2023-01-30T08:22:18.282Z,376
2023-01-30T08:23:17.420Z,376
2023-01-30T08:24:17.902Z,380
2023-01-30T08:25:18.493Z,368
2023-01-30T08:26:19.091Z,364
2023-01-30T08:27:19.494Z,372
2023-01-30T08:28:20.807Z,388
2023-01-30T08:29:21.214Z,420
2023-01-30T08:30:52.447Z,420
2023-01-30T08:31:52.881Z,444
2023-01-30T08:32:53.503Z,452
2023-01-30T08:33:54.792Z,472
2023-01-30T08:34:55.267Z,492
2023-01-30T08:35:55.834Z,496
2023-01-30T08:36:56.281Z,464
2023-01-30T08:37:56.837Z,432
2023-01-30T08:38:58.020Z,424
2023-01-30T08:39:58.463Z,420
2023-01-30T08:40:58.933Z,412
2023-01-30T08:41:59.427Z,412
2023-01-30T08:43:00.060Z,428
2023-01-30T08:44:00.560Z,440
2023-01-30T08:45:01.028Z,448
2023-01-30T08:46:01.533Z,448
2023-01-30T08:47:01.867Z,452
2023-01-30T08:48:02.624Z,444
2023-01-30T08:49:04.040Z,428
2023-01-30T08:50:04.634Z,412
2023-01-30T08:51:05.129Z,432
2023-01-30T08:52:05.524Z,448
2023-01-30T08:53:06.168Z,476
2023-01-30T08:54:06.676Z,488
2023-01-30T08:55:07.299Z,480
2023-01-30T08:56:07.754Z,484
2023-01-30T08:57:08.866Z,504
2023-01-30T08:58:09.345Z,536
2023-01-30T08:59:10.670Z,540
2023-01-30T09:00:11.220Z,532
2023-01-30T09:01:11.757Z,548
2023-01-30T09:02:12.205Z,612
2023-01-30T09:03:12.816Z,644
2023-01-30T09:04:13.340Z,672
2023-01-30T09:05:13.836Z,696
2023-01-30T09:06:14.346Z,732
2023-01-30T09:07:14.787Z,720
2023-01-30T09:08:15.333Z,772
2023-01-30T09:09:16.609Z,752
2023-01-30T09:10:17.718Z,764
2023-01-30T09:11:17.672Z,780
2023-01-30T09:12:18.112Z,756
2023-01-30T09:13:19.642Z,716
2023-01-30T09:14:20.142Z,816
2023-01-30T09:15:20.549Z,764
2023-01-30T09:16:21.518Z,772
2023-01-30T09:17:52.195Z,740
2023-01-30T09:18:53.478Z,732
2023-01-30T09:19:53.986Z,728
2023-01-30T09:20:55.275Z,736
2023-01-30T09:21:55.726Z,752
2023-01-30T09:22:56.229Z,764
2023-01-30T09:23:56.671Z,776
2023-01-30T09:24:57.217Z,768
2023-01-30T09:25:57.856Z,752
2023-01-30T09:26:58.213Z,760
2023-01-30T09:27:58.726Z,760
2023-01-30T09:28:59.978Z,756
2023-01-30T09:30:00.501Z,748
2023-01-30T09:31:01.117Z,744
2023-01-30T09:32:01.434Z,740
2023-01-30T09:33:02.773Z,744
2023-01-30T09:34:03.179Z,624
2023-01-30T09:35:04.642Z,736
2023-01-30T09:36:05.065Z,736
2023-01-30T09:37:05.575Z,744
2023-01-30T09:38:06.019Z,736
2023-01-30T09:39:07.055Z,732
2023-01-30T09:40:07.522Z,736
2023-01-30T09:41:08.067Z,748
2023-01-30T09:42:08.649Z,752
2023-01-30T09:43:09.130Z,748
2023-01-30T09:44:09.554Z,760
2023-01-30T09:45:10.017Z,772
2023-01-30T09:46:10.603Z,768
2023-01-30T09:47:11.161Z,768
2023-01-30T09:48:11.673Z,776
2023-01-30T09:49:13.155Z,788
2023-01-30T09:50:13.623Z,776
2023-01-30T09:51:14.211Z,772
2023-01-30T09:52:14.753Z,788
2023-01-30T09:53:15.220Z,780
2023-01-30T09:54:15.813Z,788
2023-01-30T09:55:16.260Z,764
2023-01-30T09:56:16.735Z,776
2023-01-30T09:57:21.764Z,780
2023-01-30T09:58:17.684Z,780
2023-01-30T09:59:19.038Z,780
2023-01-30T10:00:19.842Z,772
2023-01-30T10:01:21.553Z,788
2023-01-30T10:02:20.966Z,796
2023-01-30T10:03:51.809Z,808
2023-01-30T10:05:01.392Z,804
2023-01-30T10:05:53.626Z,788
2023-01-30T10:06:54.029Z,776
2023-01-30T10:07:54.694Z,772
2023-01-30T10:08:56.029Z,776
2023-01-30T10:09:57.394Z,792
2023-01-30T10:11:09.612Z,808
2023-01-30T10:11:58.292Z,804
2023-01-30T10:12:58.838Z,808
2023-01-30T10:13:59.432Z,816
2023-01-30T10:15:00.050Z,824
2023-01-30T10:16:00.637Z,820
2023-01-30T10:17:00.939Z,824
2023-01-30T10:18:01.479Z,824
2023-01-30T10:19:02.900Z,824
2023-01-30T10:20:03.442Z,820
2023-01-30T10:21:03.979Z,824
2023-01-30T10:22:04.360Z,832
2023-01-30T10:23:04.916Z,824
2023-01-30T10:24:05.430Z,828
2023-01-30T10:25:06.029Z,828
2023-01-30T10:26:06.544Z,828
2023-01-30T10:27:06.945Z,832
2023-01-30T10:28:07.483Z,832
2023-01-30T10:29:08.814Z,824
2023-01-30T10:30:09.563Z,828
2023-01-30T10:31:10.202Z,828
2023-01-30T10:32:10.603Z,832
2023-01-30T10:33:11.059Z,848
2023-01-30T10:34:11.520Z,852
2023-01-30T10:35:12.661Z,856
2023-01-30T10:36:13.182Z,860
2023-01-30T10:37:13.637Z,844
2023-01-30T10:38:14.197Z,836
2023-01-30T10:39:15.275Z,860
2023-01-30T10:40:16.426Z,848
2023-01-30T10:41:16.416Z,856
2023-01-30T10:42:16.893Z,848
2023-01-30T10:43:17.386Z,832
2023-01-30T10:44:17.853Z,840
2023-01-30T10:45:18.286Z,844
2023-01-30T10:46:18.990Z,852
2023-01-30T10:47:20.594Z,860
2023-01-30T10:48:20.352Z,852
2023-01-30T10:49:51.972Z,852
2023-01-30T10:50:52.463Z,856
2023-01-30T10:51:53.009Z,848
2023-01-30T10:52:53.631Z,848
2023-01-30T10:53:54.207Z,856
2023-01-30T10:54:54.600Z,864
2023-01-30T10:55:55.118Z,868
2023-01-30T10:56:55.668Z,876
2023-01-30T10:57:56.094Z,880
2023-01-30T10:58:57.678Z,876
2023-01-30T10:59:58.962Z,880
2023-01-30T11:00:59.469Z,872
2023-01-30T11:02:00.057Z,876
2023-01-30T11:03:00.700Z,872
2023-01-30T11:04:02.152Z,872
2023-01-30T11:05:02.590Z,872
2023-01-30T11:06:03.016Z,872
2023-01-30T11:07:03.978Z,860
2023-01-30T11:08:04.588Z,868
2023-01-30T11:09:05.078Z,856
2023-01-30T11:10:06.491Z,852
2023-01-30T11:11:06.968Z,852
2023-01-30T11:12:07.419Z,848
2023-01-30T11:13:07.966Z,860
2023-01-30T11:14:08.465Z,868
2023-01-30T11:15:09.022Z,872
2023-01-30T11:16:09.697Z,880
2023-01-30T11:17:09.974Z,888
2023-01-30T11:18:46.817Z,892
2023-01-30T11:19:21.515Z,900
2023-01-30T11:20:13.600Z,892
2023-01-30T11:21:12.934Z,896
2023-01-30T11:22:13.440Z,776
2023-01-30T11:23:13.868Z,844
2023-01-30T11:24:14.385Z,908
2023-01-30T11:25:15.139Z,904
2023-01-30T11:26:15.506Z,908
2023-01-30T11:27:15.963Z,908
2023-01-30T11:28:16.327Z,892
2023-01-30T11:29:17.335Z,896
2023-01-30T11:30:18.297Z,892
2023-01-30T11:31:23.350Z,884
2023-01-30T11:32:19.034Z,888
2023-01-30T11:33:20.752Z,900
2023-01-30T11:34:51.625Z,904
2023-01-30T11:35:52.105Z,912
2023-01-30T11:36:52.567Z,928
2023-01-30T11:37:53.779Z,944
2023-01-30T11:38:54.179Z,952
2023-01-30T11:39:55.558Z,960
2023-01-30T11:40:56.039Z,980
2023-01-30T11:41:56.515Z,988
2023-01-30T11:42:57.777Z,1004
2023-01-30T11:43:58.176Z,1008
2023-01-30T11:45:14.850Z,1032
2023-01-30T11:45:59.251Z,1080
2023-01-30T11:46:59.745Z,1136
2023-01-30T11:48:02.936Z,1212
2023-01-30T11:49:06.277Z,1316
2023-01-30T11:50:07.216Z,1412
2023-01-30T11:51:02.536Z,1588
2023-01-30T11:52:03.163Z,1616
2023-01-30T11:53:03.687Z,1704
2023-01-30T11:54:04.170Z,1716
2023-01-30T11:55:04.660Z,1780
2023-01-30T11:56:08.533Z,1780
2023-01-30T11:57:05.857Z,1816
2023-01-30T11:58:06.334Z,1956
2023-01-30T11:59:06.785Z,2040
2023-01-30T12:00:07.957Z,2072
2023-01-30T12:01:08.344Z,2008
2023-01-30T12:02:09.082Z,1888
2023-01-30T12:03:09.581Z,1724
2023-01-30T12:04:10.502Z,1692
2023-01-30T12:05:11.456Z,1764
2023-01-30T12:06:12.017Z,1752
2023-01-30T12:07:12.560Z,1824
2023-01-30T12:08:13.127Z,1820
2023-01-30T12:09:13.719Z,1708
2023-01-30T12:10:15.090Z,1732
2023-01-30T12:11:15.467Z,1736
2023-01-30T12:12:15.875Z,1908
2023-01-30T12:13:16.567Z,2004
2023-01-30T12:14:17.077Z,2088
2023-01-30T12:15:17.520Z,2136
2023-01-30T12:16:17.974Z,2116
2023-01-30T12:17:18.362Z,2060
2023-01-30T12:18:19.433Z,2076
2023-01-30T12:19:50.768Z,2040
2023-01-30T12:20:51.353Z,1860
2023-01-30T12:21:51.759Z,1888
2023-01-30T12:22:52.229Z,1916
2023-01-30T12:23:52.851Z,1940
2023-01-30T12:24:53.304Z,2016
2023-01-30T12:25:53.797Z,1848
2023-01-30T12:26:54.252Z,1832
2023-01-30T12:27:54.650Z,1820
2023-01-30T12:28:55.132Z,1852
2023-01-30T12:29:56.265Z,1924
2023-01-30T12:30:56.829Z,1984
2023-01-30T12:31:57.184Z,1968
2023-01-30T12:32:57.642Z,1996
2023-01-30T12:33:58.130Z,1968
2023-01-30T12:34:58.648Z,1992
2023-01-30T12:35:59.094Z,1824
2023-01-30T12:36:59.754Z,1636
2023-01-30T12:38:00.171Z,1628
2023-01-30T12:39:00.659Z,1452
2023-01-30T12:40:01.839Z,1436
2023-01-30T12:41:02.341Z,1680
2023-01-30T12:42:02.920Z,1696
2023-01-30T12:43:03.457Z,1728
2023-01-30T12:44:03.919Z,1732
2023-01-30T12:45:04.398Z,1768
2023-01-30T12:46:05.023Z,1832
2023-01-30T12:47:05.645Z,1880
2023-01-30T12:48:07.013Z,1924
2023-01-30T12:49:11.733Z,2160
2023-01-30T12:50:07.958Z,2504
2023-01-30T12:51:08.568Z,2216
2023-01-30T12:52:09.070Z,2848
2023-01-30T12:53:09.576Z,2388
2023-01-30T12:54:10.107Z,2484
2023-01-30T12:55:10.524Z,2768
2023-01-30T12:56:11.037Z,2844
2023-01-30T12:57:11.790Z,2896
2023-01-30T12:58:12.114Z,2172
2023-01-30T12:59:12.653Z,2256
2023-01-30T13:00:13.783Z,2976
2023-01-30T13:01:14.213Z,2788
2023-01-30T13:02:14.907Z,2624
2023-01-30T13:03:15.311Z,2664
2023-01-30T13:04:15.878Z,2716
2023-01-30T13:05:17.241Z,3168
2023-01-30T13:06:17.652Z,3164
2023-01-30T13:07:18.127Z,2976
2023-01-30T13:08:49.093Z,2512
2023-01-30T13:09:49.745Z,2104
2023-01-30T13:10:50.959Z,1996
2023-01-30T13:11:51.419Z,1784
2023-01-30T13:12:51.834Z,1532
2023-01-30T13:13:52.368Z,1352
2023-01-30T13:14:52.981Z,1288
2023-01-30T13:15:53.623Z,1272
2023-01-30T13:16:53.871Z,1248
2023-01-30T13:17:54.283Z,1320
2023-01-30T13:18:54.703Z,1468
2023-01-30T13:19:55.152Z,1616
2023-01-30T13:20:56.945Z,1752
2023-01-30T13:21:56.873Z,1636
2023-01-30T13:22:57.274Z,1500
2023-01-30T13:23:57.671Z,1668
2023-01-30T13:24:58.125Z,3020
2023-01-30T13:25:58.594Z,2848
2023-01-30T13:26:59.211Z,1940
2023-01-30T13:27:59.577Z,1888
2023-01-30T13:28:59.956Z,2464
2023-01-30T13:30:00.595Z,2756
2023-01-30T13:31:02.028Z,3720
2023-01-30T13:32:02.993Z,4040
2023-01-30T13:33:03.074Z,3972
2023-01-30T13:34:03.487Z,3520
2023-01-30T13:35:03.908Z,2616
2023-01-30T13:36:04.428Z,2812
2023-01-30T13:37:04.997Z,3272
2023-01-30T13:38:05.568Z,3092
2023-01-30T13:39:06.016Z,4912
2023-01-30T13:40:06.638Z,3992
2023-01-30T13:41:08.098Z,3104
2023-01-30T13:42:08.687Z,2712
2023-01-30T13:43:09.178Z,2684
2023-01-30T13:44:09.590Z,3232
2023-01-30T13:45:10.081Z,4188
2023-01-30T13:46:10.797Z,3532
2023-01-30T13:47:11.224Z,5148
2023-01-30T13:48:12.021Z,4608
2023-01-30T13:49:12.493Z,5260
2023-01-30T13:50:13.035Z,5744
2023-01-30T13:51:14.077Z,7360
2023-01-30T13:52:15.614Z,11124
2023-01-30T13:53:15.192Z,11904
2023-01-30T13:54:15.691Z,12444
2023-01-30T13:55:16.383Z,13584
2023-01-30T13:56:39.736Z,13388
2023-01-30T13:57:17.387Z,12640
2023-01-30T13:58:48.535Z,6452
2023-01-30T13:59:49.087Z,5052
2023-01-30T14:00:50.602Z,2840
2023-01-30T14:01:51.210Z,2488
2023-01-30T14:02:51.661Z,1756
2023-01-30T14:03:53.072Z,1560
2023-01-30T14:04:53.531Z,1468
2023-01-30T14:05:54.068Z,1472
2023-01-30T14:06:54.593Z,1600
2023-01-30T14:07:55.083Z,1768
2023-01-30T14:08:56.558Z,1852
2023-01-30T14:09:57.115Z,1988
2023-01-30T14:10:58.542Z,2080
2023-01-30T14:11:59.084Z,2080
2023-01-30T14:12:59.634Z,2020
2023-01-30T14:14:00.173Z,1764
2023-01-30T14:15:00.647Z,1504
2023-01-30T14:16:01.315Z,1084
2023-01-30T14:17:01.702Z,808
2023-01-30T14:18:02.187Z,708
2023-01-30T14:19:02.712Z,664
2023-01-30T14:20:03.279Z,444
2023-01-30T14:21:04.507Z,376
2023-01-30T14:22:05.057Z,340
2023-01-30T14:23:05.461Z,324
2023-01-30T14:24:05.921Z,300
2023-01-30T14:25:06.460Z,288
2023-01-30T14:26:06.921Z,272
2023-01-30T14:27:09.692Z,260
2023-01-30T14:28:07.968Z,268
2023-01-30T14:29:08.430Z,268
2023-01-30T14:30:09.151Z,280
2023-01-30T14:31:10.772Z,284